sensor_id;sensor_type;location;lat;lon;timestamp;P1;durP1;ratioP1;P2;durP2;ratioP2
76155;SDS011;64906;51.290;7.348;2023-03-23T00:01:12;17.73;;;13.50;;
76155;SDS011;64906;51.290;7.348;2023-03-23T00:03:39;17.23;;;13.55;;
76155;SDS011;64906;51.290;7.348;2023-03-23T00:06:06;16.92;;;13.25;;
76155;SDS011;64906;51.290;7.348;2023-03-23T00:08:33;16.88;;;13.60;;
76155;SDS011;64906;51.290;7.348;2023-03-23T00:11:10;17.20;;;13.68;;
76155;SDS011;64906;51.290;7.348;2023-03-23T00:13:54;17.40;;;13.35;;
76155;SDS011;64906;51.290;7.348;2023-03-23T00:16:23;16.10;;;12.60;;
76155;SDS011;64906;51.290;7.348;2023-03-23T00:19:07;17.15;;;12.68;;
76155;SDS011;64906;51.290;7.348;2023-03-23T00:21:35;18.77;;;12.88;;
76155;SDS011;64906;51.290;7.348;2023-03-23T00:26:29;15.32;;;12.30;;
76155;SDS011;64906;51.290;7.348;2023-03-23T00:28:58;15.45;;;12.15;;
76155;SDS011;64906;51.290;7.348;2023-03-23T00:31:25;15.18;;;12.10;;
76155;SDS011;64906;51.290;7.348;2023-03-23T00:33:56;16.17;;;13.27;;
76155;SDS011;64906;51.290;7.348;2023-03-23T00:36:23;16.55;;;13.20;;
76155;SDS011;64906;51.290;7.348;2023-03-23T00:38:48;16.67;;;12.40;;
76155;SDS011;64906;51.290;7.348;2023-03-23T00:41:13;16.00;;;12.63;;
76155;SDS011;64906;51.290;7.348;2023-03-23T00:43:40;15.82;;;11.43;;
76155;SDS011;64906;51.290;7.348;2023-03-23T00:46:05;14.77;;;12.10;;
76155;SDS011;64906;51.290;7.348;2023-03-23T00:48:35;16.00;;;12.15;;
76155;SDS011;64906;51.290;7.348;2023-03-23T00:51:05;15.88;;;11.65;;
76155;SDS011;64906;51.290;7.348;2023-03-23T00:53:37;16.08;;;12.32;;
76155;SDS011;64906;51.290;7.348;2023-03-23T00:56:03;15.35;;;11.50;;
76155;SDS011;64906;51.290;7.348;2023-03-23T00:58:29;17.83;;;12.52;;
76155;SDS011;64906;51.290;7.348;2023-03-23T01:00:54;16.60;;;11.32;;
76155;SDS011;64906;51.290;7.348;2023-03-23T01:03:21;15.07;;;11.75;;
76155;SDS011;64906;51.290;7.348;2023-03-23T01:05:47;14.48;;;11.43;;
76155;SDS011;64906;51.290;7.348;2023-03-23T01:08:13;13.20;;;10.70;;
76155;SDS011;64906;51.290;7.348;2023-03-23T01:10:39;14.55;;;11.55;;
76155;SDS011;64906;51.290;7.348;2023-03-23T01:13:05;15.15;;;12.02;;
76155;SDS011;64906;51.290;7.348;2023-03-23T01:15:31;14.68;;;11.32;;
76155;SDS011;64906;51.290;7.348;2023-03-23T01:17:57;14.30;;;10.88;;
76155;SDS011;64906;51.290;7.348;2023-03-23T01:20:23;15.27;;;11.68;;
76155;SDS011;64906;51.290;7.348;2023-03-23T01:22:51;14.60;;;11.68;;
76155;SDS011;64906;51.290;7.348;2023-03-23T01:25:17;14.23;;;10.68;;
76155;SDS011;64906;51.290;7.348;2023-03-23T01:27:43;14.03;;;10.73;;
76155;SDS011;64906;51.290;7.348;2023-03-23T01:30:10;13.43;;;10.77;;
76155;SDS011;64906;51.290;7.348;2023-03-23T01:32:37;13.13;;;9.90;;
76155;SDS011;64906;51.290;7.348;2023-03-23T01:35:02;13.75;;;10.50;;
76155;SDS011;64906;51.290;7.348;2023-03-23T01:37:28;14.35;;;10.88;;
76155;SDS011;64906;51.290;7.348;2023-03-23T01:39:55;12.93;;;10.30;;
76155;SDS011;64906;51.290;7.348;2023-03-23T01:42:25;14.25;;;11.38;;
76155;SDS011;64906;51.290;7.348;2023-03-23T01:47:20;12.70;;;10.87;;
76155;SDS011;64906;51.290;7.348;2023-03-23T01:49:48;15.02;;;10.80;;
76155;SDS011;64906;51.290;7.348;2023-03-23T01:52:25;14.00;;;11.02;;
76155;SDS011;64906;51.290;7.348;2023-03-23T01:54:54;13.85;;;11.02;;
76155;SDS011;64906;51.290;7.348;2023-03-23T01:57:22;13.68;;;10.95;;
76155;SDS011;64906;51.290;7.348;2023-03-23T01:59:52;13.88;;;10.57;;
76155;SDS011;64906;51.290;7.348;2023-03-23T02:02:20;14.50;;;11.25;;
76155;SDS011;64906;51.290;7.348;2023-03-23T02:04:47;12.75;;;10.57;;
76155;SDS011;64906;51.290;7.348;2023-03-23T02:07:13;14.38;;;10.40;;
76155;SDS011;64906;51.290;7.348;2023-03-23T02:09:40;12.50;;;9.85;;
76155;SDS011;64906;51.290;7.348;2023-03-23T02:12:06;12.97;;;10.40;;
76155;SDS011;64906;51.290;7.348;2023-03-23T02:14:31;14.35;;;10.15;;
76155;SDS011;64906;51.290;7.348;2023-03-23T02:16:59;12.63;;;10.30;;
76155;SDS011;64906;51.290;7.348;2023-03-23T02:22:31;12.82;;;10.00;;
76155;SDS011;64906;51.290;7.348;2023-03-23T02:30:39;12.52;;;9.35;;
76155;SDS011;64906;51.290;7.348;2023-03-23T02:33:29;12.05;;;8.43;;
76155;SDS011;64906;51.290;7.348;2023-03-23T02:38:30;13.23;;;10.20;;
76155;SDS011;64906;51.290;7.348;2023-03-23T02:41:01;12.15;;;9.57;;
76155;SDS011;64906;51.290;7.348;2023-03-23T02:43:30;12.52;;;9.75;;
76155;SDS011;64906;51.290;7.348;2023-03-23T02:46:03;12.02;;;9.32;;
76155;SDS011;64906;51.290;7.348;2023-03-23T02:48:31;13.15;;;9.82;;
76155;SDS011;64906;51.290;7.348;2023-03-23T02:50:58;12.10;;;8.93;;
76155;SDS011;64906;51.290;7.348;2023-03-23T02:53:27;11.63;;;9.27;;
76155;SDS011;64906;51.290;7.348;2023-03-23T02:55:54;11.63;;;8.88;;
76155;SDS011;64906;51.290;7.348;2023-03-23T02:58:21;11.60;;;9.10;;
76155;SDS011;64906;51.290;7.348;2023-03-23T03:00:50;11.07;;;8.90;;
76155;SDS011;64906;51.290;7.348;2023-03-23T03:03:16;10.88;;;8.43;;
76155;SDS011;64906;51.290;7.348;2023-03-23T03:11:16;11.95;;;8.77;;
76155;SDS011;64906;51.290;7.348;2023-03-23T03:13:47;11.80;;;9.20;;
76155;SDS011;64906;51.290;7.348;2023-03-23T03:18:52;10.98;;;8.73;;
76155;SDS011;64906;51.290;7.348;2023-03-23T03:21:23;12.73;;;9.35;;
76155;SDS011;64906;51.290;7.348;2023-03-23T03:23:52;11.00;;;8.75;;
76155;SDS011;64906;51.290;7.348;2023-03-23T03:26:21;9.93;;;7.50;;
76155;SDS011;64906;51.290;7.348;2023-03-23T03:28:52;10.93;;;7.65;;
76155;SDS011;64906;51.290;7.348;2023-03-23T03:31:19;10.57;;;8.10;;
76155;SDS011;64906;51.290;7.348;2023-03-23T03:33:47;11.38;;;8.35;;
76155;SDS011;64906;51.290;7.348;2023-03-23T03:36:22;11.95;;;9.05;;
76155;SDS011;64906;51.290;7.348;2023-03-23T03:38:51;10.82;;;8.20;;
76155;SDS011;64906;51.290;7.348;2023-03-23T03:41:17;10.65;;;8.32;;
76155;SDS011;64906;51.290;7.348;2023-03-23T03:43:43;11.18;;;8.25;;
76155;SDS011;64906;51.290;7.348;2023-03-23T03:46:09;10.75;;;8.27;;
76155;SDS011;64906;51.290;7.348;2023-03-23T03:48:34;10.63;;;8.23;;
76155;SDS011;64906;51.290;7.348;2023-03-23T03:51:00;10.40;;;8.20;;
76155;SDS011;64906;51.290;7.348;2023-03-23T03:53:26;10.77;;;8.23;;
76155;SDS011;64906;51.290;7.348;2023-03-23T03:55:52;11.15;;;8.32;;
76155;SDS011;64906;51.290;7.348;2023-03-23T03:58:20;10.43;;;7.90;;
76155;SDS011;64906;51.290;7.348;2023-03-23T04:00:47;11.00;;;8.57;;
76155;SDS011;64906;51.290;7.348;2023-03-23T04:03:13;9.90;;;7.97;;
76155;SDS011;64906;51.290;7.348;2023-03-23T04:05:38;10.38;;;7.47;;
76155;SDS011;64906;51.290;7.348;2023-03-23T04:08:03;11.00;;;7.85;;
76155;SDS011;64906;51.290;7.348;2023-03-23T04:10:29;10.20;;;7.70;;
76155;SDS011;64906;51.290;7.348;2023-03-23T04:12:55;9.95;;;7.40;;
76155;SDS011;64906;51.290;7.348;2023-03-23T04:15:20;10.63;;;8.02;;
76155;SDS011;64906;51.290;7.348;2023-03-23T04:17:46;10.38;;;7.72;;
76155;SDS011;64906;51.290;7.348;2023-03-23T04:20:11;9.70;;;7.40;;
76155;SDS011;64906;51.290;7.348;2023-03-23T04:22:43;10.18;;;7.45;;
76155;SDS011;64906;51.290;7.348;2023-03-23T04:25:11;10.13;;;7.25;;
76155;SDS011;64906;51.290;7.348;2023-03-23T04:27:37;10.20;;;7.70;;
76155;SDS011;64906;51.290;7.348;2023-03-23T04:30:03;10.32;;;7.82;;
76155;SDS011;64906;51.290;7.348;2023-03-23T04:32:29;10.15;;;7.93;;
76155;SDS011;64906;51.290;7.348;2023-03-23T04:34:55;9.60;;;7.45;;
76155;SDS011;64906;51.290;7.348;2023-03-23T04:37:23;10.25;;;7.60;;
76155;SDS011;64906;51.290;7.348;2023-03-23T04:39:54;9.88;;;7.65;;
76155;SDS011;64906;51.290;7.348;2023-03-23T04:42:28;10.15;;;7.68;;
76155;SDS011;64906;51.290;7.348;2023-03-23T04:44:55;10.05;;;7.40;;
76155;SDS011;64906;51.290;7.348;2023-03-23T04:47:21;10.30;;;7.70;;
76155;SDS011;64906;51.290;7.348;2023-03-23T04:49:47;10.05;;;7.18;;
76155;SDS011;64906;51.290;7.348;2023-03-23T04:52:12;8.68;;;6.57;;
76155;SDS011;64906;51.290;7.348;2023-03-23T04:54:38;9.93;;;7.43;;
76155;SDS011;64906;51.290;7.348;2023-03-23T04:57:04;10.32;;;7.18;;
76155;SDS011;64906;51.290;7.348;2023-03-23T04:59:29;10.53;;;7.67;;
76155;SDS011;64906;51.290;7.348;2023-03-23T05:01:55;10.82;;;7.65;;
76155;SDS011;64906;51.290;7.348;2023-03-23T05:04:22;9.77;;;7.15;;
76155;SDS011;64906;51.290;7.348;2023-03-23T05:06:50;9.05;;;6.80;;
76155;SDS011;64906;51.290;7.348;2023-03-23T05:09:16;9.52;;;7.22;;
76155;SDS011;64906;51.290;7.348;2023-03-23T05:11:42;9.50;;;7.10;;
76155;SDS011;64906;51.290;7.348;2023-03-23T05:14:07;9.27;;;6.70;;
76155;SDS011;64906;51.290;7.348;2023-03-23T05:16:32;10.37;;;7.63;;
76155;SDS011;64906;51.290;7.348;2023-03-23T05:18:58;9.37;;;6.33;;
76155;SDS011;64906;51.290;7.348;2023-03-23T05:21:23;8.53;;;6.53;;
76155;SDS011;64906;51.290;7.348;2023-03-23T05:23:48;8.70;;;6.40;;
76155;SDS011;64906;51.290;7.348;2023-03-23T05:26:20;8.68;;;6.93;;
76155;SDS011;64906;51.290;7.348;2023-03-23T05:28:45;8.70;;;6.57;;
76155;SDS011;64906;51.290;7.348;2023-03-23T05:31:11;8.50;;;6.85;;
76155;SDS011;64906;51.290;7.348;2023-03-23T05:33:38;8.45;;;6.38;;
76155;SDS011;64906;51.290;7.348;2023-03-23T05:36:03;9.15;;;6.30;;
76155;SDS011;64906;51.290;7.348;2023-03-23T05:38:31;8.63;;;5.88;;
76155;SDS011;64906;51.290;7.348;2023-03-23T05:41:00;8.80;;;6.68;;
76155;SDS011;64906;51.290;7.348;2023-03-23T05:43:26;9.20;;;6.78;;
76155;SDS011;64906;51.290;7.348;2023-03-23T05:45:51;9.68;;;5.95;;
76155;SDS011;64906;51.290;7.348;2023-03-23T05:48:17;8.80;;;6.57;;
76155;SDS011;64906;51.290;7.348;2023-03-23T05:50:42;7.95;;;5.68;;
76155;SDS011;64906;51.290;7.348;2023-03-23T05:53:07;8.80;;;6.50;;
76155;SDS011;64906;51.290;7.348;2023-03-23T05:55:33;7.60;;;5.97;;
76155;SDS011;64906;51.290;7.348;2023-03-23T05:57:58;10.07;;;6.70;;
76155;SDS011;64906;51.290;7.348;2023-03-23T06:00:24;8.30;;;6.10;;
76155;SDS011;64906;51.290;7.348;2023-03-23T06:02:50;8.82;;;6.38;;
76155;SDS011;64906;51.290;7.348;2023-03-23T06:05:19;7.72;;;5.88;;
76155;SDS011;64906;51.290;7.348;2023-03-23T06:07:45;7.90;;;5.78;;
76155;SDS011;64906;51.290;7.348;2023-03-23T06:10:10;7.90;;;6.10;;
76155;SDS011;64906;51.290;7.348;2023-03-23T06:12:36;8.63;;;6.25;;
76155;SDS011;64906;51.290;7.348;2023-03-23T06:15:03;8.20;;;5.82;;
76155;SDS011;64906;51.290;7.348;2023-03-23T06:17:31;7.30;;;5.60;;
76155;SDS011;64906;51.290;7.348;2023-03-23T06:19:56;8.57;;;5.78;;
76155;SDS011;64906;51.290;7.348;2023-03-23T06:22:22;8.23;;;6.05;;
76155;SDS011;64906;51.290;7.348;2023-03-23T06:24:48;8.05;;;6.10;;
76155;SDS011;64906;51.290;7.348;2023-03-23T06:27:14;8.38;;;6.35;;
76155;SDS011;64906;51.290;7.348;2023-03-23T06:29:41;8.85;;;6.03;;
76155;SDS011;64906;51.290;7.348;2023-03-23T06:32:06;7.28;;;5.57;;
76155;SDS011;64906;51.290;7.348;2023-03-23T06:34:32;8.15;;;5.80;;
76155;SDS011;64906;51.290;7.348;2023-03-23T06:36:57;7.23;;;5.50;;
76155;SDS011;64906;51.290;7.348;2023-03-23T06:39:23;7.63;;;5.63;;
76155;SDS011;64906;51.290;7.348;2023-03-23T06:41:48;7.80;;;5.57;;
76155;SDS011;64906;51.290;7.348;2023-03-23T06:44:14;7.15;;;5.47;;
76155;SDS011;64906;51.290;7.348;2023-03-23T06:46:40;7.00;;;4.95;;
76155;SDS011;64906;51.290;7.348;2023-03-23T06:49:06;7.30;;;5.60;;
76155;SDS011;64906;51.290;7.348;2023-03-23T06:51:32;7.80;;;5.57;;
76155;SDS011;64906;51.290;7.348;2023-03-23T06:53:57;6.88;;;5.30;;
76155;SDS011;64906;51.290;7.348;2023-03-23T06:56:23;8.02;;;5.65;;
76155;SDS011;64906;51.290;7.348;2023-03-23T06:58:49;7.53;;;5.53;;
76155;SDS011;64906;51.290;7.348;2023-03-23T07:01:14;7.47;;;5.80;;
76155;SDS011;64906;51.290;7.348;2023-03-23T07:03:41;8.00;;;5.30;;
76155;SDS011;64906;51.290;7.348;2023-03-23T07:06:07;7.82;;;5.28;;
76155;SDS011;64906;51.290;7.348;2023-03-23T07:08:33;8.07;;;5.70;;
76155;SDS011;64906;51.290;7.348;2023-03-23T07:10:58;6.82;;;5.20;;
76155;SDS011;64906;51.290;7.348;2023-03-23T07:13:23;6.73;;;5.00;;
76155;SDS011;64906;51.290;7.348;2023-03-23T07:15:50;7.43;;;5.50;;
76155;SDS011;64906;51.290;7.348;2023-03-23T07:18:16;7.18;;;5.68;;
76155;SDS011;64906;51.290;7.348;2023-03-23T07:20:41;7.47;;;5.30;;
76155;SDS011;64906;51.290;7.348;2023-03-23T07:23:07;6.95;;;5.10;;
76155;SDS011;64906;51.290;7.348;2023-03-23T07:25:33;7.40;;;5.37;;
76155;SDS011;64906;51.290;7.348;2023-03-23T07:27:59;7.28;;;5.15;;
76155;SDS011;64906;51.290;7.348;2023-03-23T07:30:26;7.22;;;4.97;;
76155;SDS011;64906;51.290;7.348;2023-03-23T07:32:52;7.05;;;5.03;;
76155;SDS011;64906;51.290;7.348;2023-03-23T07:35:17;7.60;;;5.53;;
76155;SDS011;64906;51.290;7.348;2023-03-23T07:37:43;6.23;;;4.30;;
76155;SDS011;64906;51.290;7.348;2023-03-23T07:40:08;7.13;;;5.05;;
76155;SDS011;64906;51.290;7.348;2023-03-23T07:45:07;7.07;;;4.93;;
76155;SDS011;64906;51.290;7.348;2023-03-23T07:47:33;7.13;;;5.15;;
76155;SDS011;64906;51.290;7.348;2023-03-23T07:49:59;8.07;;;5.30;;
76155;SDS011;64906;51.290;7.348;2023-03-23T07:52:24;6.53;;;4.93;;
76155;SDS011;64906;51.290;7.348;2023-03-23T07:54:49;7.10;;;5.03;;
76155;SDS011;64906;51.290;7.348;2023-03-23T07:57:15;7.45;;;5.05;;
76155;SDS011;64906;51.290;7.348;2023-03-23T07:59:40;7.73;;;5.47;;
76155;SDS011;64906;51.290;7.348;2023-03-23T08:02:07;7.20;;;5.18;;
76155;SDS011;64906;51.290;7.348;2023-03-23T08:04:34;6.65;;;4.88;;
76155;SDS011;64906;51.290;7.348;2023-03-23T08:07:02;6.32;;;4.75;;
76155;SDS011;64906;51.290;7.348;2023-03-23T08:09:29;7.53;;;4.90;;
76155;SDS011;64906;51.290;7.348;2023-03-23T08:11:55;7.15;;;5.00;;
76155;SDS011;64906;51.290;7.348;2023-03-23T08:14:20;6.28;;;4.60;;
76155;SDS011;64906;51.290;7.348;2023-03-23T08:16:46;6.43;;;4.78;;
76155;SDS011;64906;51.290;7.348;2023-03-23T08:19:13;6.65;;;4.78;;
76155;SDS011;64906;51.290;7.348;2023-03-23T08:21:38;7.27;;;5.07;;
76155;SDS011;64906;51.290;7.348;2023-03-23T08:24:03;6.32;;;4.53;;
76155;SDS011;64906;51.290;7.348;2023-03-23T08:26:30;7.45;;;4.40;;
76155;SDS011;64906;51.290;7.348;2023-03-23T08:28:55;7.15;;;4.90;;
76155;SDS011;64906;51.290;7.348;2023-03-23T08:31:20;6.70;;;4.73;;
76155;SDS011;64906;51.290;7.348;2023-03-23T08:33:46;6.03;;;3.92;;
76155;SDS011;64906;51.290;7.348;2023-03-23T08:36:12;6.80;;;4.80;;
76155;SDS011;64906;51.290;7.348;2023-03-23T08:38:38;6.57;;;4.82;;
76155;SDS011;64906;51.290;7.348;2023-03-23T08:41:04;6.05;;;4.05;;
76155;SDS011;64906;51.290;7.348;2023-03-23T08:43:31;6.80;;;4.65;;
76155;SDS011;64906;51.290;7.348;2023-03-23T08:45:57;7.25;;;4.88;;
76155;SDS011;64906;51.290;7.348;2023-03-23T08:48:23;6.25;;;4.18;;
76155;SDS011;64906;51.290;7.348;2023-03-23T08:50:49;6.50;;;4.85;;
76155;SDS011;64906;51.290;7.348;2023-03-23T08:53:15;6.25;;;4.45;;
76155;SDS011;64906;51.290;7.348;2023-03-23T08:55:41;6.10;;;4.25;;
76155;SDS011;64906;51.290;7.348;2023-03-23T08:58:07;6.65;;;4.53;;
76155;SDS011;64906;51.290;7.348;2023-03-23T09:00:33;6.60;;;4.50;;
76155;SDS011;64906;51.290;7.348;2023-03-23T09:02:59;6.60;;;4.63;;
76155;SDS011;64906;51.290;7.348;2023-03-23T09:05:25;6.38;;;4.32;;
76155;SDS011;64906;51.290;7.348;2023-03-23T09:07:53;7.13;;;4.60;;
76155;SDS011;64906;51.290;7.348;2023-03-23T09:10:20;6.10;;;4.10;;
76155;SDS011;64906;51.290;7.348;2023-03-23T09:12:47;5.80;;;4.18;;
76155;SDS011;64906;51.290;7.348;2023-03-23T09:15:14;6.97;;;4.25;;
76155;SDS011;64906;51.290;7.348;2023-03-23T09:17:42;8.73;;;5.68;;
76155;SDS011;64906;51.290;7.348;2023-03-23T09:20:10;12.85;;;8.45;;
76155;SDS011;64906;51.290;7.348;2023-03-23T09:22:38;10.98;;;8.38;;
76155;SDS011;64906;51.290;7.348;2023-03-23T09:25:08;12.52;;;9.23;;
76155;SDS011;64906;51.290;7.348;2023-03-23T09:27:36;15.85;;;9.02;;
76155;SDS011;64906;51.290;7.348;2023-03-23T09:30:04;10.82;;;7.68;;
76155;SDS011;64906;51.290;7.348;2023-03-23T09:32:35;12.23;;;8.73;;
76155;SDS011;64906;51.290;7.348;2023-03-23T09:35:01;10.93;;;8.40;;
76155;SDS011;64906;51.290;7.348;2023-03-23T09:37:28;12.68;;;7.55;;
76155;SDS011;64906;51.290;7.348;2023-03-23T09:39:53;15.90;;;8.07;;
76155;SDS011;64906;51.290;7.348;2023-03-23T09:42:41;12.63;;;7.90;;
76155;SDS011;64906;51.290;7.348;2023-03-23T09:48:26;11.85;;;8.30;;
76155;SDS011;64906;51.290;7.348;2023-03-23T09:53:54;13.63;;;8.50;;
76155;SDS011;64906;51.290;7.348;2023-03-23T09:56:24;10.98;;;8.48;;
76155;SDS011;64906;51.290;7.348;2023-03-23T09:59:08;11.57;;;8.23;;
76155;SDS011;64906;51.290;7.348;2023-03-23T10:01:56;10.85;;;8.05;;
76155;SDS011;64906;51.290;7.348;2023-03-23T10:04:43;10.88;;;8.18;;
76155;SDS011;64906;51.290;7.348;2023-03-23T10:07:13;12.07;;;7.53;;
76155;SDS011;64906;51.290;7.348;2023-03-23T10:09:42;11.52;;;7.82;;
76155;SDS011;64906;51.290;7.348;2023-03-23T10:12:16;10.55;;;7.75;;
76155;SDS011;64906;51.290;7.348;2023-03-23T10:25:59;11.73;;;8.18;;
76155;SDS011;64906;51.290;7.348;2023-03-23T10:28:37;11.63;;;8.23;;
76155;SDS011;64906;51.290;7.348;2023-03-23T10:31:08;10.48;;;8.07;;
76155;SDS011;64906;51.290;7.348;2023-03-23T10:33:47;10.57;;;8.10;;
76155;SDS011;64906;51.290;7.348;2023-03-23T10:41:36;11.77;;;8.40;;
76155;SDS011;64906;51.290;7.348;2023-03-23T10:44:08;10.82;;;8.13;;
76155;SDS011;64906;51.290;7.348;2023-03-23T10:49:33;13.32;;;8.52;;
76155;SDS011;64906;51.290;7.348;2023-03-23T10:54:35;11.00;;;7.93;;
76155;SDS011;64906;51.290;7.348;2023-03-23T10:57:12;12.02;;;8.02;;
76155;SDS011;64906;51.290;7.348;2023-03-23T11:02:57;10.18;;;7.75;;
76155;SDS011;64906;51.290;7.348;2023-03-23T11:05:55;11.20;;;7.93;;
76155;SDS011;64906;51.290;7.348;2023-03-23T11:08:24;11.73;;;8.63;;
76155;SDS011;64906;51.290;7.348;2023-03-23T11:11:07;12.20;;;8.43;;
76155;SDS011;64906;51.290;7.348;2023-03-23T11:13:32;11.07;;;8.07;;
76155;SDS011;64906;51.290;7.348;2023-03-23T11:15:59;11.10;;;7.43;;
76155;SDS011;64906;51.290;7.348;2023-03-23T11:18:36;10.73;;;7.03;;
76155;SDS011;64906;51.290;7.348;2023-03-23T11:21:10;10.80;;;6.97;;
76155;SDS011;64906;51.290;7.348;2023-03-23T11:23:39;11.43;;;8.25;;
76155;SDS011;64906;51.290;7.348;2023-03-23T11:28:55;11.35;;;7.97;;
76155;SDS011;64906;51.290;7.348;2023-03-23T11:31:51;10.25;;;7.70;;
76155;SDS011;64906;51.290;7.348;2023-03-23T11:34:22;10.70;;;7.63;;
76155;SDS011;64906;51.290;7.348;2023-03-23T11:36:51;11.02;;;8.00;;
76155;SDS011;64906;51.290;7.348;2023-03-23T11:39:21;11.65;;;8.25;;
76155;SDS011;64906;51.290;7.348;2023-03-23T11:41:49;10.05;;;6.63;;
76155;SDS011;64906;51.290;7.348;2023-03-23T11:44:14;10.93;;;7.75;;
76155;SDS011;64906;51.290;7.348;2023-03-23T11:52:19;10.27;;;7.55;;
76155;SDS011;64906;51.290;7.348;2023-03-23T11:55:36;10.98;;;6.97;;
76155;SDS011;64906;51.290;7.348;2023-03-23T11:57:39;11.40;;;7.95;;
76155;SDS011;64906;51.290;7.348;2023-03-23T12:00:15;11.85;;;7.65;;
76155;SDS011;64906;51.290;7.348;2023-03-23T12:05:52;10.77;;;7.93;;
76155;SDS011;64906;51.290;7.348;2023-03-23T12:09:21;11.73;;;8.02;;
76155;SDS011;64906;51.290;7.348;2023-03-23T12:14:53;10.88;;;7.20;;
76155;SDS011;64906;51.290;7.348;2023-03-23T12:17:46;10.45;;;7.72;;
76155;SDS011;64906;51.290;7.348;2023-03-23T12:23:08;10.82;;;7.78;;
76155;SDS011;64906;51.290;7.348;2023-03-23T12:26:09;10.70;;;7.38;;
76155;SDS011;64906;51.290;7.348;2023-03-23T12:33:58;10.95;;;8.25;;
76155;SDS011;64906;51.290;7.348;2023-03-23T12:36:50;10.57;;;7.63;;
76155;SDS011;64906;51.290;7.348;2023-03-23T12:42:30;11.88;;;8.38;;
76155;SDS011;64906;51.290;7.348;2023-03-23T12:45:42;10.57;;;8.23;;
76155;SDS011;64906;51.290;7.348;2023-03-23T12:48:11;11.25;;;7.75;;
76155;SDS011;64906;51.290;7.348;2023-03-23T12:53:17;12.57;;;8.63;;
76155;SDS011;64906;51.290;7.348;2023-03-23T12:55:49;11.55;;;8.07;;
76155;SDS011;64906;51.290;7.348;2023-03-23T12:58:29;11.07;;;7.72;;
76155;SDS011;64906;51.290;7.348;2023-03-23T13:01:07;11.15;;;7.95;;
76155;SDS011;64906;51.290;7.348;2023-03-23T13:03:43;12.25;;;8.57;;
76155;SDS011;64906;51.290;7.348;2023-03-23T13:09:24;11.15;;;7.97;;
76155;SDS011;64906;51.290;7.348;2023-03-23T13:11:45;10.48;;;7.93;;
76155;SDS011;64906;51.290;7.348;2023-03-23T13:22:24;10.85;;;7.75;;
76155;SDS011;64906;51.290;7.348;2023-03-23T13:24:57;11.60;;;8.13;;
76155;SDS011;64906;51.290;7.348;2023-03-23T13:27:27;11.10;;;7.70;;
76155;SDS011;64906;51.290;7.348;2023-03-23T13:29:54;10.68;;;7.80;;
76155;SDS011;64906;51.290;7.348;2023-03-23T13:32:32;11.45;;;8.43;;
76155;SDS011;64906;51.290;7.348;2023-03-23T13:35:02;11.93;;;7.70;;
76155;SDS011;64906;51.290;7.348;2023-03-23T13:37:30;12.93;;;8.23;;
76155;SDS011;64906;51.290;7.348;2023-03-23T13:40:20;11.55;;;8.27;;
76155;SDS011;64906;51.290;7.348;2023-03-23T13:42:56;11.52;;;7.95;;
76155;SDS011;64906;51.290;7.348;2023-03-23T13:48:04;10.80;;;6.88;;
76155;SDS011;64906;51.290;7.348;2023-03-23T13:50:44;10.15;;;7.57;;
76155;SDS011;64906;51.290;7.348;2023-03-23T13:53:22;11.95;;;8.70;;
76155;SDS011;64906;51.290;7.348;2023-03-23T13:56:04;12.52;;;8.00;;
76155;SDS011;64906;51.290;7.348;2023-03-23T13:58:43;21.85;;;13.70;;
76155;SDS011;64906;51.290;7.348;2023-03-23T14:01:35;20.67;;;14.57;;
76155;SDS011;64906;51.290;7.348;2023-03-23T14:04:06;29.02;;;18.45;;
76155;SDS011;64906;51.290;7.348;2023-03-23T14:06:40;31.63;;;22.80;;
76155;SDS011;64906;51.290;7.348;2023-03-23T14:09:10;34.20;;;25.42;;
76155;SDS011;64906;51.290;7.348;2023-03-23T14:11:55;37.47;;;24.30;;
76155;SDS011;64906;51.290;7.348;2023-03-23T14:14:45;42.47;;;29.15;;
76155;SDS011;64906;51.290;7.348;2023-03-23T14:17:18;41.72;;;27.63;;
76155;SDS011;64906;51.290;7.348;2023-03-23T14:19:53;44.13;;;30.15;;
76155;SDS011;64906;51.290;7.348;2023-03-23T14:22:36;40.90;;;27.80;;
76155;SDS011;64906;51.290;7.348;2023-03-23T14:25:16;41.30;;;26.90;;
76155;SDS011;64906;51.290;7.348;2023-03-23T14:27:43;40.33;;;27.13;;
76155;SDS011;64906;51.290;7.348;2023-03-23T14:30:14;38.40;;;27.25;;
76155;SDS011;64906;51.290;7.348;2023-03-23T14:32:42;39.47;;;25.08;;
76155;SDS011;64906;51.290;7.348;2023-03-23T14:35:30;39.05;;;27.75;;
76155;SDS011;64906;51.290;7.348;2023-03-23T14:37:56;36.65;;;26.65;;
76155;SDS011;64906;51.290;7.348;2023-03-23T14:40:22;39.67;;;25.53;;
76155;SDS011;64906;51.290;7.348;2023-03-23T14:42:51;41.13;;;28.02;;
76155;SDS011;64906;51.290;7.348;2023-03-23T14:45:19;38.38;;;27.25;;
76155;SDS011;64906;51.290;7.348;2023-03-23T14:47:47;39.40;;;27.42;;
76155;SDS011;64906;51.290;7.348;2023-03-23T14:50:49;36.30;;;25.60;;
76155;SDS011;64906;51.290;7.348;2023-03-23T14:53:24;35.58;;;26.08;;
76155;SDS011;64906;51.290;7.348;2023-03-23T14:55:54;41.33;;;24.80;;
76155;SDS011;64906;51.290;7.348;2023-03-23T14:58:21;36.88;;;26.27;;
76155;SDS011;64906;51.290;7.348;2023-03-23T15:00:51;35.67;;;25.33;;
76155;SDS011;64906;51.290;7.348;2023-03-23T15:03:20;34.35;;;25.02;;
76155;SDS011;64906;51.290;7.348;2023-03-23T15:05:48;38.47;;;25.90;;
76155;SDS011;64906;51.290;7.348;2023-03-23T15:08:19;34.65;;;25.13;;
76155;SDS011;64906;51.290;7.348;2023-03-23T15:10:55;35.08;;;25.92;;
76155;SDS011;64906;51.290;7.348;2023-03-23T15:13:27;37.85;;;24.90;;
76155;SDS011;64906;51.290;7.348;2023-03-23T15:15:52;35.00;;;24.48;;
76155;SDS011;64906;51.290;7.348;2023-03-23T15:21:10;38.00;;;25.63;;
76155;SDS011;64906;51.290;7.348;2023-03-23T15:23:44;37.40;;;25.55;;
76155;SDS011;64906;51.290;7.348;2023-03-23T15:26:17;35.58;;;25.15;;
76155;SDS011;64906;51.290;7.348;2023-03-23T15:28:48;34.72;;;25.05;;
76155;SDS011;64906;51.290;7.348;2023-03-23T15:31:13;34.88;;;24.83;;
76155;SDS011;64906;51.290;7.348;2023-03-23T15:33:39;33.33;;;24.80;;
76155;SDS011;64906;51.290;7.348;2023-03-23T15:36:13;33.60;;;24.73;;
76155;SDS011;64906;51.290;7.348;2023-03-23T15:38:43;31.50;;;23.50;;
76155;SDS011;64906;51.290;7.348;2023-03-23T15:41:31;32.95;;;23.70;;
76155;SDS011;64906;51.290;7.348;2023-03-23T15:43:58;33.20;;;24.20;;
76155;SDS011;64906;51.290;7.348;2023-03-23T15:51:28;34.30;;;24.48;;
76155;SDS011;64906;51.290;7.348;2023-03-23T15:53:55;33.78;;;23.85;;
76155;SDS011;64906;51.290;7.348;2023-03-23T15:56:21;33.83;;;23.88;;
76155;SDS011;64906;51.290;7.348;2023-03-23T15:58:48;32.97;;;23.25;;
76155;SDS011;64906;51.290;7.348;2023-03-23T16:01:15;30.70;;;21.25;;
76155;SDS011;64906;51.290;7.348;2023-03-23T16:03:50;31.92;;;24.05;;
76155;SDS011;64906;51.290;7.348;2023-03-23T16:06:18;32.78;;;23.00;;
76155;SDS011;64906;51.290;7.348;2023-03-23T16:08:45;33.65;;;24.20;;
76155;SDS011;64906;51.290;7.348;2023-03-23T16:11:11;32.85;;;23.23;;
76155;SDS011;64906;51.290;7.348;2023-03-23T16:13:38;33.70;;;23.65;;
76155;SDS011;64906;51.290;7.348;2023-03-23T16:16:04;32.30;;;23.63;;
76155;SDS011;64906;51.290;7.348;2023-03-23T16:18:32;33.70;;;22.52;;
76155;SDS011;64906;51.290;7.348;2023-03-23T16:20:58;32.40;;;23.15;;
76155;SDS011;64906;51.290;7.348;2023-03-23T16:23:23;32.47;;;22.63;;
76155;SDS011;64906;51.290;7.348;2023-03-23T16:25:49;31.07;;;22.23;;
76155;SDS011;64906;51.290;7.348;2023-03-23T16:28:14;31.30;;;22.23;;
76155;SDS011;64906;51.290;7.348;2023-03-23T16:30:41;32.03;;;22.98;;
76155;SDS011;64906;51.290;7.348;2023-03-23T16:33:07;33.38;;;22.45;;
76155;SDS011;64906;51.290;7.348;2023-03-23T16:35:33;32.20;;;23.38;;